Time;durP1;ratioP1;P1;durP2;ratioP2;P2;SDS_P1;SDS_P2;PMS_P1;PMS_P2;Temp;Humidity;BMP_temperature;BMP_pressure;BME280_temperature;BME280_humidity;BME280_pressure;Samples;Min_cycle;Max_cycle;Signal;HPM_P1;HPM_P2
2023/11/11 00:01:42;;;;;;;2.03;1.83;;;;;;;;;;5057649;28;20260;-52
2023/11/11 00:04:08;;;;;;;4.30;2.00;;;;;;;;;;5059988;28;20180;-53
2023/11/11 00:06:34;;;;;;;3.30;1.90;;;;;;;;;;5061979;28;20706;-52
2023/11/11 00:09:00;;;;;;;3.93;2.07;;;;;;;;;;5057455;28;20548;-53
2023/11/11 00:11:26;;;;;;;2.33;1.90;;;;;;;;;;5051846;28;20189;-52
2023/11/11 00:13:52;;;;;;;1.97;1.67;;;;;;;;;;5056050;28;20390;-52
2023/11/11 00:16:21;;;;;;;2.30;1.83;;;;;;;;;;5058339;28;20200;-53
2023/11/11 00:18:48;;;;;;;2.00;1.80;;;;;;;;;;5054105;28;20589;-54
2023/11/11 00:21:14;;;;;;;1.73;1.60;;;;;;;;;;5058296;28;20180;-53
2023/11/11 00:23:40;;;;;;;2.07;1.50;;;;;;;;;;5055536;28;20660;-52
2023/11/11 00:26:06;;;;;;;2.40;2.17;;;;;;;;;;5056906;28;20258;-52
2023/11/11 00:28:33;;;;;;;5.03;1.90;;;;;;;;;;5054753;28;20181;-52
2023/11/11 00:30:59;;;;;;;2.17;1.80;;;;;;;;;;5058091;28;20357;-52
2023/11/11 00:33:25;;;;;;;3.23;1.57;;;;;;;;;;5056521;28;20302;-53
2023/11/11 00:35:51;;;;;;;3.37;1.90;;;;;;;;;;5058176;28;20177;-54
2023/11/11 00:38:17;;;;;;;2.63;1.90;;;;;;;;;;5056450;28;20226;-53
2023/11/11 00:40:44;;;;;;;3.80;2.17;;;;;;;;;;5055334;28;20177;-53
2023/11/11 00:43:10;;;;;;;2.43;2.10;;;;;;;;;;5056717;28;20641;-53
2023/11/11 00:45:36;;;;;;;3.33;2.70;;;;;;;;;;5055681;28;20185;-53
2023/11/11 00:48:02;;;;;;;3.87;2.77;;;;;;;;;;5057494;28;20554;-54
2023/11/11 00:50:28;;;;;;;4.77;3.10;;;;;;;;;;5056921;28;20184;-54
2023/11/11 00:52:55;;;;;;;3.70;3.27;;;;;;;;;;5051779;28;20189;-54
2023/11/11 00:55:21;;;;;;;3.83;3.20;;;;;;;;;;5056359;28;20235;-54
2023/11/11 00:57:47;;;;;;;4.70;4.23;;;;;;;;;;5053949;28;20209;-53
2023/11/11 01:00:15;;;;;;;5.67;4.40;;;;;;;;;;5053575;28;20476;-53
2023/11/11 01:02:41;;;;;;;6.33;4.97;;;;;;;;;;5058550;28;20180;-53
2023/11/11 01:05:09;;;;;;;5.10;4.60;;;;;;;;;;5054015;28;22261;-53
2023/11/11 01:07:35;;;;;;;6.60;5.23;;;;;;;;;;5051490;28;20181;-53
2023/11/11 01:10:02;;;;;;;6.40;5.53;;;;;;;;;;5056439;28;20662;-53
2023/11/11 01:12:28;;;;;;;6.03;5.23;;;;;;;;;;5055214;28;20263;-53
2023/11/11 01:14:55;;;;;;;8.23;6.00;;;;;;;;;;5054221;28;20207;-53
2023/11/11 01:17:21;;;;;;;7.57;5.80;;;;;;;;;;5057095;28;20204;-53
2023/11/11 01:19:47;;;;;;;7.93;6.87;;;;;;;;;;5056913;28;20241;-53
2023/11/11 01:22:13;;;;;;;7.97;6.67;;;;;;;;;;5056450;28;20211;-53
2023/11/11 01:24:42;;;;;;;11.37;6.37;;;;;;;;;;5052156;28;20256;-52
2023/11/11 01:27:11;;;;;;;10.53;7.67;;;;;;;;;;5055187;28;20191;-52
2023/11/11 01:29:37;;;;;;;12.07;8.03;;;;;;;;;;5052520;28;20231;-53
2023/11/11 01:32:05;;;;;;;10.27;8.63;;;;;;;;;;5053795;28;20289;-52
2023/11/11 01:34:31;;;;;;;9.97;8.90;;;;;;;;;;5049176;28;20569;-52
2023/11/11 01:36:57;;;;;;;10.13;8.50;;;;;;;;;;5054149;28;20660;-52
2023/11/11 01:39:23;;;;;;;11.03;9.37;;;;;;;;;;5056099;28;20195;-52
2023/11/11 01:41:49;;;;;;;12.03;10.20;;;;;;;;;;5052075;28;20181;-52
2023/11/11 01:44:16;;;;;;;12.70;10.70;;;;;;;;;;5059175;28;20268;-52
2023/11/11 01:46:42;;;;;;;11.53;10.07;;;;;;;;;;5056475;28;20179;-53
2023/11/11 01:49:08;;;;;;;11.53;10.33;;;;;;;;;;5059505;28;20214;-54
2023/11/11 01:51:35;;;;;;;12.57;10.27;;;;;;;;;;5061076;28;20175;-54
2023/11/11 01:54:02;;;;;;;12.57;11.10;;;;;;;;;;5057665;28;20231;-54
2023/11/11 01:56:28;;;;;;;17.10;12.33;;;;;;;;;;5057812;28;20294;-53
2023/11/11 01:58:55;;;;;;;12.90;11.57;;;;;;;;;;5063046;28;20200;-56
2023/11/11 02:01:23;;;;;;;13.17;10.97;;;;;;;;;;5061676;28;20512;-55
2023/11/11 02:03:49;;;;;;;14.53;12.10;;;;;;;;;;5058416;28;20637;-55
2023/11/11 02:06:16;;;;;;;16.80;12.77;;;;;;;;;;5055110;28;20252;-55
2023/11/11 02:08:42;;;;;;;13.83;12.30;;;;;;;;;;5056440;28;20177;-56
2023/11/11 02:11:08;;;;;;;15.20;11.83;;;;;;;;;;5058719;28;20632;-54
2023/11/11 02:13:35;;;;;;;13.87;12.10;;;;;;;;;;5061275;28;20200;-55
2023/11/11 02:16:04;;;;;;;13.93;12.40;;;;;;;;;;5060959;28;20182;-55
2023/11/11 02:18:31;;;;;;;13.53;11.97;;;;;;;;;;5060423;28;20590;-57
2023/11/11 02:20:57;;;;;;;14.23;12.67;;;;;;;;;;5055119;28;20610;-55
2023/11/11 02:23:27;;;;;;;13.60;11.80;;;;;;;;;;5057927;28;20169;-54
2023/11/11 02:25:53;;;;;;;15.57;12.33;;;;;;;;;;5059967;28;20351;-54
2023/11/11 02:28:19;;;;;;;13.93;12.17;;;;;;;;;;5057380;28;20181;-54
2023/11/11 02:30:49;;;;;;;15.10;13.50;;;;;;;;;;5057522;28;20184;-54
2023/11/11 02:33:15;;;;;;;15.00;13.10;;;;;;;;;;5053511;28;20185;-55
2023/11/11 02:35:41;;;;;;;15.80;13.00;;;;;;;;;;5040201;28;20172;-54
2023/11/11 02:38:07;;;;;;;16.07;12.43;;;;;;;;;;5051646;28;20208;-55
2023/11/11 02:40:33;;;;;;;12.87;11.47;;;;;;;;;;5057039;28;20184;-54
2023/11/11 02:42:59;;;;;;;14.73;13.00;;;;;;;;;;5060991;28;20600;-54
2023/11/11 02:45:25;;;;;;;14.43;12.03;;;;;;;;;;5056610;28;20192;-55
2023/11/11 02:47:51;;;;;;;13.57;11.43;;;;;;;;;;5041530;28;20177;-54
2023/11/11 02:50:17;;;;;;;12.90;11.53;;;;;;;;;;5055737;28;20671;-55
2023/11/11 02:52:43;;;;;;;11.87;9.87;;;;;;;;;;5058217;28;20193;-55
2023/11/11 02:55:09;;;;;;;13.60;12.20;;;;;;;;;;5059802;28;20546;-54
2023/11/11 02:57:35;;;;;;;15.50;11.97;;;;;;;;;;5058715;28;20207;-55
2023/11/11 03:00:02;;;;;;;11.93;10.57;;;;;;;;;;5055414;28;20173;-55
2023/11/11 03:02:28;;;;;;;13.03;11.23;;;;;;;;;;5057510;28;20738;-55
2023/11/11 03:04:54;;;;;;;12.70;10.70;;;;;;;;;;5053975;28;20660;-55
2023/11/11 03:07:20;;;;;;;13.33;10.83;;;;;;;;;;5057335;28;20671;-55
2023/11/11 03:09:46;;;;;;;13.73;10.77;;;;;;;;;;5058388;28;20184;-53
2023/11/11 03:12:12;;;;;;;12.53;11.23;;;;;;;;;;5059159;28;20184;-53
2023/11/11 03:14:40;;;;;;;11.30;9.77;;;;;;;;;;5045457;28;20253;-53
2023/11/11 03:17:06;;;;;;;12.27;10.37;;;;;;;;;;5059185;28;20212;-53
2023/11/11 03:19:32;;;;;;;14.10;10.43;;;;;;;;;;5062912;28;20184;-53
2023/11/11 03:21:58;;;;;;;10.63;9.53;;;;;;;;;;5058073;28;20275;-53
2023/11/11 03:24:24;;;;;;;13.50;10.53;;;;;;;;;;5060259;28;20445;-52
2023/11/11 03:26:50;;;;;;;16.30;11.30;;;;;;;;;;5058011;28;20176;-53
2023/11/11 03:29:16;;;;;;;12.67;9.67;;;;;;;;;;5060444;28;20204;-52
2023/11/11 03:31:42;;;;;;;11.20;9.60;;;;;;;;;;5059432;28;20242;-53
2023/11/11 03:34:08;;;;;;;13.27;11.00;;;;;;;;;;5058670;28;20207;-53
2023/11/11 03:36:34;;;;;;;12.33;10.60;;;;;;;;;;5059365;28;20204;-52
2023/11/11 03:39:00;;;;;;;13.73;9.83;;;;;;;;;;5060595;28;20626;-52
2023/11/11 03:41:26;;;;;;;13.73;10.43;;;;;;;;;;5056876;28;20302;-53
2023/11/11 03:43:52;;;;;;;13.23;10.07;;;;;;;;;;5056112;28;20189;-53
2023/11/11 03:46:18;;;;;;;12.20;10.30;;;;;;;;;;5061527;28;20192;-53
2023/11/11 03:48:44;;;;;;;10.23;9.17;;;;;;;;;;5057988;28;20165;-53
2023/11/11 03:51:10;;;;;;;12.90;9.60;;;;;;;;;;5059388;28;20189;-53
2023/11/11 03:53:36;;;;;;;11.80;9.83;;;;;;;;;;5060636;28;20245;-53
2023/11/11 03:56:07;;;;;;;13.23;10.73;;;;;;;;;;5058013;28;20193;-53
2023/11/11 03:58:33;;;;;;;11.73;9.80;;;;;;;;;;5059170;28;20200;-53
2023/11/11 04:01:01;;;;;;;12.87;9.73;;;;;;;;;;5059182;28;20176;-53
2023/11/11 04:03:28;;;;;;;11.90;10.07;;;;;;;;;;5057236;28;20215;-53
2023/11/11 04:05:54;;;;;;;10.63;8.63;;;;;;;;;;5054735;28;20553;-53
2023/11/11 04:08:22;;;;;;;12.60;8.87;;;;;;;;;;5059292;28;20176;-53
2023/11/11 04:10:48;;;;;;;11.53;8.70;;;;;;;;;;5059271;28;20176;-53
2023/11/11 04:13:14;;;;;;;12.00;9.20;;;;;;;;;;5056123;28;20276;-53
2023/11/11 04:15:40;;;;;;;11.50;7.63;;;;;;;;;;5058644;28;20555;-54
2023/11/11 04:18:06;;;;;;;12.17;8.50;;;;;;;;;;5057435;28;20215;-53
2023/11/11 04:20:33;;;;;;;10.40;8.20;;;;;;;;;;5055246;28;20562;-53
2023/11/11 04:22:59;;;;;;;9.53;7.33;;;;;;;;;;5056229;28;20177;-53
2023/11/11 04:25:25;;;;;;;8.70;7.03;;;;;;;;;;5058723;28;20594;-53
2023/11/11 04:27:51;;;;;;;9.43;8.37;;;;;;;;;;5060510;28;20532;-53
2023/11/11 04:30:17;;;;;;;10.83;7.67;;;;;;;;;;5055526;28;20262;-53
2023/11/11 04:32:43;;;;;;;7.13;6.43;;;;;;;;;;5060760;28;20223;-54
2023/11/11 04:35:10;;;;;;;8.83;6.53;;;;;;;;;;5060347;28;20644;-53
2023/11/11 04:37:37;;;;;;;8.90;6.93;;;;;;;;;;5058614;28;20213;-53
2023/11/11 04:40:07;;;;;;;8.67;6.03;;;;;;;;;;5057350;28;20210;-53
2023/11/11 04:42:35;;;;;;;7.60;6.43;;;;;;;;;;5058851;28;20183;-53
2023/11/11 04:45:01;;;;;;;8.85;6.00;;;;;;;;;;5056270;28;20188;-53
2023/11/11 04:47:27;;;;;;;6.60;5.90;;;;;;;;;;5060122;28;20176;-53
2023/11/11 04:49:53;;;;;;;6.30;5.70;;;;;;;;;;5058609;28;20697;-53
2023/11/11 04:52:20;;;;;;;6.87;5.57;;;;;;;;;;5061269;28;20185;-53
2023/11/11 04:54:48;;;;;;;6.33;4.90;;;;;;;;;;5061456;28;20292;-53
2023/11/11 04:57:14;;;;;;;8.00;5.03;;;;;;;;;;5056380;28;20200;-53
2023/11/11 04:59:40;;;;;;;8.43;4.70;;;;;;;;;;5059879;28;20257;-53
2023/11/11 05:02:06;;;;;;;5.90;4.37;;;;;;;;;;5043978;28;20679;-53
2023/11/11 05:04:32;;;;;;;7.40;4.30;;;;;;;;;;5060339;28;20177;-53
2023/11/11 05:06:58;;;;;;;6.03;4.07;;;;;;;;;;5055293;28;20757;-53
2023/11/11 05:09:25;;;;;;;8.23;3.57;;;;;;;;;;5059024;28;20176;-53
2023/11/11 05:11:54;;;;;;;7.77;3.77;;;;;;;;;;5057729;28;20486;-53
2023/11/11 05:14:20;;;;;;;4.60;3.10;;;;;;;;;;5055344;28;20652;-53
2023/11/11 05:16:50;;;;;;;3.37;2.60;;;;;;;;;;5061683;28;20204;-53
2023/11/11 05:19:17;;;;;;;5.47;2.97;;;;;;;;;;5053036;28;20835;-53
2023/11/11 05:21:43;;;;;;;4.93;2.57;;;;;;;;;;5052367;28;20177;-53
2023/11/11 05:24:10;;;;;;;3.73;2.70;;;;;;;;;;5058094;28;20341;-53
2023/11/11 05:26:38;;;;;;;2.87;2.23;;;;;;;;;;5058187;28;20691;-53
2023/11/11 05:29:04;;;;;;;4.10;2.50;;;;;;;;;;5057112;28;20330;-53
2023/11/11 05:31:31;;;;;;;4.23;2.43;;;;;;;;;;5056150;28;20251;-54
2023/11/11 05:33:57;;;;;;;3.00;2.07;;;;;;;;;;5055213;28;20611;-53
2023/11/11 05:36:25;;;;;;;1.67;1.57;;;;;;;;;;5049831;28;20673;-53
2023/11/11 05:38:51;;;;;;;7.67;2.70;;;;;;;;;;5055429;28;20222;-53
2023/11/11 05:41:17;;;;;;;6.00;2.33;;;;;;;;;;5053129;28;20192;-54
2023/11/11 05:43:43;;;;;;;3.30;2.00;;;;;;;;;;5057383;28;20190;-53
2023/11/11 05:46:10;;;;;;;3.00;2.00;;;;;;;;;;5056250;28;20173;-53
2023/11/11 05:48:37;;;;;;;4.67;1.87;;;;;;;;;;5050458;28;20186;-53
2023/11/11 05:51:04;;;;;;;2.33;1.47;;;;;;;;;;5055081;28;20173;-53
2023/11/11 05:53:31;;;;;;;1.67;1.50;;;;;;;;;;5055409;28;20192;-54
2023/11/11 05:55:57;;;;;;;2.67;1.50;;;;;;;;;;5055031;28;20226;-54
2023/11/11 05:58:23;;;;;;;3.20;1.63;;;;;;;;;;5050906;28;20239;-53
2023/11/11 06:00:49;;;;;;;3.97;1.60;;;;;;;;;;5057868;28;20636;-54
2023/11/11 06:03:15;;;;;;;3.53;1.63;;;;;;;;;;5054276;28;20424;-53
2023/11/11 06:05:41;;;;;;;2.37;1.53;;;;;;;;;;5035042;28;20668;-54
2023/11/11 06:08:09;;;;;;;2.20;1.60;;;;;;;;;;5052543;28;20200;-53
2023/11/11 06:10:37;;;;;;;1.83;1.33;;;;;;;;;;5055985;28;20223;-53
2023/11/11 06:13:05;;;;;;;3.20;1.37;;;;;;;;;;5040455;28;20248;-53
2023/11/11 06:15:32;;;;;;;2.93;1.40;;;;;;;;;;5056187;28;20517;-53
2023/11/11 06:17:58;;;;;;;3.87;1.90;;;;;;;;;;5056494;28;20558;-53
2023/11/11 06:20:24;;;;;;;2.27;1.57;;;;;;;;;;5053510;28;20571;-53
2023/11/11 06:22:53;;;;;;;4.27;2.17;;;;;;;;;;5054519;28;20250;-53
2023/11/11 06:25:19;;;;;;;2.17;1.73;;;;;;;;;;5051007;28;20177;-53
2023/11/11 06:27:46;;;;;;;3.60;2.20;;;;;;;;;;5049682;28;20180;-54
2023/11/11 06:30:16;;;;;;;3.23;2.93;;;;;;;;;;5054455;28;20700;-53
2023/11/11 06:32:42;;;;;;;3.53;2.73;;;;;;;;;;5051439;28;20228;-53
2023/11/11 06:35:08;;;;;;;3.37;2.77;;;;;;;;;;5058497;28;20602;-53
2023/11/11 06:37:38;;;;;;;4.80;3.63;;;;;;;;;;5061644;28;20696;-54
2023/11/11 06:40:04;;;;;;;3.83;3.20;;;;;;;;;;5057162;28;20187;-53
2023/11/11 06:42:31;;;;;;;5.53;4.37;;;;;;;;;;5060261;28;20184;-53
2023/11/11 06:44:57;;;;;;;6.93;4.60;;;;;;;;;;5055631;28;20189;-53
2023/11/11 06:47:23;;;;;;;5.63;4.60;;;;;;;;;;5058417;28;20184;-53
2023/11/11 06:49:49;;;;;;;9.07;5.07;;;;;;;;;;5055644;28;20529;-53
2023/11/11 06:52:15;;;;;;;6.60;5.20;;;;;;;;;;5055488;28;20256;-53
2023/11/11 06:54:41;;;;;;;5.77;5.17;;;;;;;;;;5057379;28;20598;-53
2023/11/11 06:57:07;;;;;;;9.07;5.53;;;;;;;;;;5063518;28;20230;-52
2023/11/11 06:59:33;;;;;;;7.53;6.23;;;;;;;;;;5051248;28;20208;-53
2023/11/11 07:01:59;;;;;;;8.30;6.83;;;;;;;;;;5059829;28;20179;-53
2023/11/11 07:04:25;;;;;;;6.90;6.20;;;;;;;;;;5057672;28;20185;-52
2023/11/11 07:06:52;;;;;;;8.17;6.57;;;;;;;;;;5059343;28;20411;-52
2023/11/11 07:09:20;;;;;;;9.00;6.27;;;;;;;;;;5042476;28;20188;-53
2023/11/11 07:11:47;;;;;;;8.70;6.83;;;;;;;;;;5058671;28;20164;-52
2023/11/11 07:14:13;;;;;;;8.47;6.83;;;;;;;;;;5059090;28;20172;-52
2023/11/11 07:16:42;;;;;;;9.13;7.30;;;;;;;;;;5055283;28;20373;-52
2023/11/11 07:19:09;;;;;;;9.47;7.07;;;;;;;;;;5052085;28;20362;-53
2023/11/11 07:21:35;;;;;;;9.63;6.97;;;;;;;;;;5057451;28;20188;-52
2023/11/11 07:24:01;;;;;;;11.93;7.80;;;;;;;;;;5062543;28;20168;-53
2023/11/11 07:26:27;;;;;;;10.13;7.50;;;;;;;;;;5060871;28;20196;-52
2023/11/11 07:28:53;;;;;;;11.33;7.53;;;;;;;;;;5060303;28;20235;-54
2023/11/11 07:31:22;;;;;;;7.65;6.90;;;;;;;;;;5055781;28;20220;-52
2023/11/11 07:33:48;;;;;;;8.40;7.03;;;;;;;;;;5055552;28;20215;-53
2023/11/11 07:36:14;;;;;;;13.30;8.37;;;;;;;;;;5056815;28;20541;-52
2023/11/11 07:38:41;;;;;;;9.07;7.57;;;;;;;;;;5059190;28;20345;-53
2023/11/11 07:41:07;;;;;;;8.37;7.37;;;;;;;;;;5058396;28;20222;-52
2023/11/11 07:43:34;;;;;;;11.00;8.33;;;;;;;;;;5055094;28;20592;-52
2023/11/11 07:46:01;;;;;;;10.13;8.17;;;;;;;;;;5056962;28;20671;-52
2023/11/11 07:48:29;;;;;;;11.97;8.27;;;;;;;;;;5055911;28;20192;-53
2023/11/11 07:50:55;;;;;;;17.00;9.10;;;;;;;;;;5056502;28;20206;-53
2023/11/11 07:53:21;;;;;;;14.77;9.20;;;;;;;;;;5059601;28;20183;-55
2023/11/11 07:55:48;;;;;;;10.97;8.70;;;;;;;;;;5055729;28;20205;-55
2023/11/11 07:58:14;;;;;;;10.87;8.67;;;;;;;;;;5054980;28;20239;-55
2023/11/11 08:00:40;;;;;;;10.47;8.40;;;;;;;;;;5053064;28;20184;-54
2023/11/11 08:03:06;;;;;;;13.83;9.03;;;;;;;;;;5055560;28;20991;-57
2023/11/11 08:05:33;;;;;;;11.80;8.57;;;;;;;;;;5052902;28;20915;-57
2023/11/11 08:07:59;;;;;;;12.13;9.43;;;;;;;;;;5054686;28;20176;-55
2023/11/11 08:10:25;;;;;;;13.77;8.73;;;;;;;;;;5053617;28;20192;-55
2023/11/11 08:12:52;;;;;;;10.77;8.23;;;;;;;;;;5057407;28;20177;-54
2023/11/11 08:15:19;;;;;;;10.33;8.37;;;;;;;;;;5059303;28;20233;-55
2023/11/11 08:17:45;;;;;;;8.90;7.07;;;;;;;;;;5054595;28;20204;-54
2023/11/11 08:20:15;;;;;;;11.97;7.77;;;;;;;;;;5054943;28;20584;-54
2023/11/11 08:22:42;;;;;;;12.03;8.00;;;;;;;;;;5055607;28;20224;-55
2023/11/11 08:25:08;;;;;;;9.57;7.90;;;;;;;;;;5056383;28;20181;-55
2023/11/11 08:27:34;;;;;;;10.73;7.40;;;;;;;;;;5056232;28;20185;-55
2023/11/11 08:30:00;;;;;;;9.63;7.33;;;;;;;;;;5054538;28;20226;-55
2023/11/11 08:32:26;;;;;;;11.73;7.97;;;;;;;;;;5054757;28;20264;-54
2023/11/11 08:34:52;;;;;;;13.20;8.30;;;;;;;;;;5053746;28;20181;-55
2023/11/11 08:37:18;;;;;;;13.57;8.17;;;;;;;;;;5056491;28;20208;-55
2023/11/11 08:39:44;;;;;;;13.63;7.70;;;;;;;;;;5051188;28;20249;-54
2023/11/11 08:42:10;;;;;;;10.37;8.57;;;;;;;;;;5059183;28;20189;-55
2023/11/11 08:44:36;;;;;;;10.00;8.00;;;;;;;;;;5057511;28;20173;-54
2023/11/11 08:47:02;;;;;;;11.70;8.40;;;;;;;;;;5064209;28;20670;-55
2023/11/11 08:49:28;;;;;;;11.07;8.77;;;;;;;;;;5058849;28;20342;-54
2023/11/11 08:51:55;;;;;;;8.47;7.00;;;;;;;;;;5056361;28;20704;-55
2023/11/11 08:54:21;;;;;;;9.47;7.90;;;;;;;;;;5056851;28;20546;-55
2023/11/11 08:56:47;;;;;;;9.00;7.60;;;;;;;;;;5049490;28;20524;-55
2023/11/11 08:59:14;;;;;;;10.30;7.50;;;;;;;;;;5060402;28;20211;-55
2023/11/11 09:01:40;;;;;;;10.13;7.53;;;;;;;;;;5059908;28;20184;-53
2023/11/11 09:04:06;;;;;;;13.87;8.17;;;;;;;;;;5060975;28;20177;-54
2023/11/11 09:06:32;;;;;;;12.90;8.97;;;;;;;;;;5062544;28;20173;-53
2023/11/11 09:08:58;;;;;;;13.30;8.63;;;;;;;;;;5059125;28;20738;-53
2023/11/11 09:11:25;;;;;;;10.33;7.87;;;;;;;;;;5061519;28;20178;-53
2023/11/11 09:13:52;;;;;;;8.30;7.47;;;;;;;;;;5057563;28;20180;-53
2023/11/11 09:16:18;;;;;;;11.50;8.30;;;;;;;;;;5052945;28;20482;-54
2023/11/11 09:18:44;;;;;;;10.60;8.30;;;;;;;;;;5053569;28;20212;-53
2023/11/11 09:21:11;;;;;;;12.83;9.17;;;;;;;;;;5056768;28;20184;-54
2023/11/11 09:23:37;;;;;;;9.03;8.00;;;;;;;;;;5061204;28;20531;-53
2023/11/11 09:26:05;;;;;;;9.93;8.47;;;;;;;;;;5056892;28;20180;-53
2023/11/11 09:28:32;;;;;;;12.10;8.17;;;;;;;;;;5056487;28;20237;-53
2023/11/11 09:30:58;;;;;;;10.43;9.37;;;;;;;;;;5053754;28;20227;-53
2023/11/11 09:33:24;;;;;;;12.33;8.57;;;;;;;;;;5056708;28;20189;-53
2023/11/11 09:35:51;;;;;;;14.20;9.27;;;;;;;;;;5056543;28;20193;-53
2023/11/11 09:38:17;;;;;;;11.07;8.73;;;;;;;;;;5061924;28;20196;-53
2023/11/11 09:40:43;;;;;;;12.07;9.43;;;;;;;;;;5053455;28;20176;-53
2023/11/11 09:43:09;;;;;;;13.03;9.53;;;;;;;;;;5053474;28;20177;-54
2023/11/11 09:45:35;;;;;;;12.67;9.50;;;;;;;;;;5054002;28;20180;-53
2023/11/11 09:48:03;;;;;;;14.03;8.90;;;;;;;;;;5057595;28;20176;-53
2023/11/11 09:50:29;;;;;;;13.00;9.60;;;;;;;;;;5059936;28;20555;-53
2023/11/11 09:52:58;;;;;;;10.73;9.00;;;;;;;;;;5041168;28;20196;-53
2023/11/11 09:55:24;;;;;;;13.13;9.00;;;;;;;;;;5055042;28;20188;-53
2023/11/11 09:57:52;;;;;;;16.93;9.33;;;;;;;;;;5056763;28;20219;-53
2023/11/11 10:00:19;;;;;;;14.80;9.10;;;;;;;;;;5058579;28;20255;-54
2023/11/11 10:02:45;;;;;;;11.70;9.53;;;;;;;;;;5059240;28;20262;-53
2023/11/11 10:05:11;;;;;;;9.80;8.80;;;;;;;;;;5059118;28;20192;-54
2023/11/11 10:07:38;;;;;;;12.97;9.37;;;;;;;;;;5059031;28;20535;-54
2023/11/11 10:10:05;;;;;;;12.53;9.73;;;;;;;;;;5061438;28;20180;-54
2023/11/11 10:12:32;;;;;;;16.03;9.23;;;;;;;;;;5064114;28;20177;-53
2023/11/11 10:15:04;;;;;;;12.27;9.10;;;;;;;;;;5040552;28;20177;-54
2023/11/11 10:17:30;;;;;;;15.60;8.17;;;;;;;;;;5059259;28;20307;-54
2023/11/11 10:19:58;;;;;;;10.87;8.27;;;;;;;;;;5060066;28;20176;-53
2023/11/11 10:22:25;;;;;;;12.90;8.30;;;;;;;;;;5062663;28;20659;-54
2023/11/11 10:24:51;;;;;;;12.00;8.33;;;;;;;;;;5058878;28;20268;-54
2023/11/11 10:27:17;;;;;;;10.10;7.43;;;;;;;;;;5051568;28;20184;-53
2023/11/11 10:29:43;;;;;;;10.77;7.80;;;;;;;;;;5057411;28;20169;-54
2023/11/11 10:32:09;;;;;;;11.07;8.73;;;;;;;;;;5063153;28;20228;-54
2023/11/11 10:34:36;;;;;;;11.80;8.23;;;;;;;;;;5061699;28;20172;-55
2023/11/11 10:37:03;;;;;;;11.10;7.70;;;;;;;;;;5059056;28;20248;-54
2023/11/11 10:39:30;;;;;;;9.07;7.00;;;;;;;;;;5053472;28;20697;-54
2023/11/11 10:41:57;;;;;;;9.60;7.93;;;;;;;;;;5060592;28;20259;-54
2023/11/11 10:44:23;;;;;;;11.03;6.90;;;;;;;;;;5060265;28;20645;-54
2023/11/11 10:46:49;;;;;;;8.57;7.00;;;;;;;;;;5059728;28;20325;-54
2023/11/11 10:49:15;;;;;;;11.23;7.30;;;;;;;;;;5058328;28;20180;-54
2023/11/11 10:51:41;;;;;;;11.53;6.67;;;;;;;;;;5059023;28;20181;-54
2023/11/11 10:54:08;;;;;;;10.17;6.87;;;;;;;;;;5060682;28;20652;-54
2023/11/11 10:56:34;;;;;;;8.70;6.57;;;;;;;;;;5066567;28;20259;-54
2023/11/11 10:59:04;;;;;;;10.13;6.90;;;;;;;;;;5062446;28;20192;-54
2023/11/11 11:01:35;;;;;;;11.20;7.10;;;;;;;;;;5066886;28;20168;-54
2023/11/11 11:04:01;;;;;;;10.03;6.50;;;;;;;;;;5067283;28;20671;-54
2023/11/11 11:06:46;;;;;;;12.37;7.37;;;;;;;;;;5065310;28;20279;-54
2023/11/11 11:09:22;;;;;;;8.83;5.30;;;;;;;;;;5064821;28;20769;-53
2023/11/11 11:11:58;;;;;;;8.73;5.20;;;;;;;;;;5063578;28;20183;-54
2023/11/11 11:14:45;;;;;;;5.90;4.60;;;;;;;;;;5065885;28;20176;-53
2023/11/11 11:17:12;;;;;;;7.93;4.77;;;;;;;;;;5065898;28;20266;-54
2023/11/11 11:19:54;;;;;;;9.33;5.07;;;;;;;;;;5060734;28;20640;-54
2023/11/11 11:22:23;;;;;;;6.77;5.17;;;;;;;;;;5062775;28;20260;-54
2023/11/11 11:24:50;;;;;;;6.07;4.40;;;;;;;;;;5063213;28;20164;-53
2023/11/11 11:27:20;;;;;;;11.23;5.17;;;;;;;;;;5062930;28;20238;-53
2023/11/11 11:29:46;;;;;;;5.90;4.47;;;;;;;;;;5049949;28;20602;-53
2023/11/11 11:32:12;;;;;;;6.60;4.67;;;;;;;;;;5066881;28;20709;-54
2023/11/11 11:34:39;;;;;;;6.90;4.47;;;;;;;;;;5064271;28;20192;-53
2023/11/11 11:37:09;;;;;;;8.77;4.77;;;;;;;;;;5061468;28;20613;-53
2023/11/11 11:39:51;;;;;;;5.97;4.30;;;;;;;;;;5049133;28;20277;-52
2023/11/11 11:42:18;;;;;;;5.30;4.80;;;;;;;;;;5067023;28;20185;-53
2023/11/11 11:44:57;;;;;;;5.93;4.17;;;;;;;;;;5066779;28;20172;-53
2023/11/11 11:47:32;;;;;;;6.90;4.20;;;;;;;;;;5066159;28;20670;-53
2023/11/11 11:49:59;;;;;;;6.93;4.10;;;;;;;;;;5061469;28;20191;-53
2023/11/11 11:52:25;;;;;;;5.87;3.67;;;;;;;;;;5067775;28;20207;-52
2023/11/11 11:54:51;;;;;;;4.87;3.37;;;;;;;;;;5067555;28;20184;-52
2023/11/11 11:57:18;;;;;;;5.87;3.80;;;;;;;;;;5068149;28;20204;-52
2023/11/11 11:59:48;;;;;;;8.60;5.40;;;;;;;;;;5065266;28;20612;-52
2023/11/11 12:02:15;;;;;;;3.40;3.10;;;;;;;;;;5068498;28;20603;-52
2023/11/11 12:04:41;;;;;;;4.33;3.83;;;;;;;;;;5067171;28;20270;-52
2023/11/11 12:07:12;;;;;;;8.20;3.70;;;;;;;;;;5067281;28;20593;-52
2023/11/11 12:09:40;;;;;;;5.87;4.07;;;;;;;;;;5063529;28;20279;-52
2023/11/11 12:12:07;;;;;;;3.50;3.20;;;;;;;;;;5065258;28;20253;-52
2023/11/11 12:14:33;;;;;;;4.63;3.57;;;;;;;;;;5063957;28;20257;-52
2023/11/11 12:16:59;;;;;;;3.93;3.50;;;;;;;;;;5065905;28;20200;-52
2023/11/11 12:19:26;;;;;;;5.70;4.10;;;;;;;;;;5065529;28;20199;-52
2023/11/11 12:21:52;;;;;;;4.17;3.77;;;;;;;;;;5065377;28;20199;-53
2023/11/11 12:24:24;;;;;;;4.53;3.93;;;;;;;;;;5065900;28;20232;-53
2023/11/11 12:26:51;;;;;;;3.97;3.10;;;;;;;;;;5067287;28;20180;-53
2023/11/11 12:29:19;;;;;;;4.83;3.43;;;;;;;;;;5065486;28;20203;-53
2023/11/11 12:31:54;;;;;;;6.70;3.47;;;;;;;;;;5066568;28;20310;-52
2023/11/11 12:34:24;;;;;;;3.90;3.40;;;;;;;;;;5064781;28;20750;-54
2023/11/11 12:36:52;;;;;;;6.63;3.37;;;;;;;;;;5065623;28;20208;-54
2023/11/11 12:39:18;;;;;;;6.43;4.33;;;;;;;;;;5065903;28;20501;-53
2023/11/11 12:41:51;;;;;;;3.87;3.23;;;;;;;;;;5066340;28;20563;-53
2023/11/11 12:44:18;;;;;;;5.03;3.63;;;;;;;;;;5066004;28;20299;-53
2023/11/11 12:46:45;;;;;;;3.73;3.30;;;;;;;;;;5066546;28;20646;-53
2023/11/11 12:49:15;;;;;;;5.83;3.67;;;;;;;;;;5063769;28;20177;-53
2023/11/11 12:51:42;;;;;;;4.20;3.17;;;;;;;;;;5066099;28;20313;-53
2023/11/11 12:54:08;;;;;;;4.27;3.40;;;;;;;;;;5065277;28;20172;-54
2023/11/11 12:56:35;;;;;;;6.40;3.50;;;;;;;;;;5065278;28;20204;-54
2023/11/11 12:59:05;;;;;;;3.73;3.43;;;;;;;;;;5066035;28;20251;-53
2023/11/11 13:01:31;;;;;;;3.63;3.30;;;;;;;;;;5066603;28;20184;-53
2023/11/11 13:04:12;;;;;;;4.53;3.97;;;;;;;;;;5064344;28;20187;-53
2023/11/11 13:06:39;;;;;;;4.77;3.60;;;;;;;;;;5056440;28;20288;-53
2023/11/11 13:09:10;;;;;;;7.63;3.80;;;;;;;;;;5064787;28;20196;-54
2023/11/11 13:11:37;;;;;;;7.17;4.37;;;;;;;;;;5066966;28;20314;-54
2023/11/11 13:14:03;;;;;;;6.73;3.63;;;;;;;;;;5064988;28;20505;-54
2023/11/11 13:16:30;;;;;;;6.30;3.33;;;;;;;;;;5066888;28;20543;-53
2023/11/11 13:18:56;;;;;;;8.37;3.70;;;;;;;;;;5064273;28;20664;-53
2023/11/11 13:21:28;;;;;;;3.60;3.30;;;;;;;;;;5067805;28;20272;-54
2023/11/11 13:23:55;;;;;;;4.10;3.50;;;;;;;;;;5067457;28;20639;-53
2023/11/11 13:26:25;;;;;;;4.60;3.17;;;;;;;;;;5066592;28;20263;-54
2023/11/11 13:28:51;;;;;;;7.27;4.00;;;;;;;;;;5070469;28;20176;-54
2023/11/11 13:31:18;;;;;;;6.97;3.73;;;;;;;;;;5062320;28;20254;-53
2023/11/11 13:33:48;;;;;;;4.30;3.47;;;;;;;;;;5065299;28;20180;-54
2023/11/11 13:36:17;;;;;;;8.83;4.03;;;;;;;;;;5065478;28;20658;-53
2023/11/11 13:38:45;;;;;;;5.37;3.17;;;;;;;;;;5066719;28;20562;-53
2023/11/11 13:41:14;;;;;;;4.43;3.37;;;;;;;;;;5065068;28;20271;-53
2023/11/11 13:43:42;;;;;;;4.57;2.87;;;;;;;;;;5066690;28;20554;-52
2023/11/11 13:46:08;;;;;;;5.27;3.40;;;;;;;;;;5069464;28;20184;-52
2023/11/11 13:48:36;;;;;;;3.90;3.43;;;;;;;;;;5072633;28;20192;-53
2023/11/11 13:51:03;;;;;;;3.67;2.47;;;;;;;;;;5071358;28;20177;-52
2023/11/11 13:53:29;;;;;;;4.07;3.07;;;;;;;;;;5070859;28;20216;-52
2023/11/11 13:55:58;;;;;;;3.07;2.53;;;;;;;;;;5068890;28;20186;-59
2023/11/11 13:58:24;;;;;;;2.77;2.50;;;;;;;;;;5068986;28;20760;-52
2023/11/11 14:00:50;;;;;;;2.93;2.70;;;;;;;;;;5069205;28;20250;-52
2023/11/11 14:03:18;;;;;;;5.13;2.70;;;;;;;;;;5068792;28;20181;-53
2023/11/11 14:05:45;;;;;;;3.00;2.70;;;;;;;;;;5067739;28;20172;-53
2023/11/11 14:08:11;;;;;;;5.23;3.70;;;;;;;;;;5069880;28;20188;-52
2023/11/11 14:10:37;;;;;;;5.03;3.27;;;;;;;;;;5069926;28;20180;-53
2023/11/11 14:13:03;;;;;;;4.70;3.00;;;;;;;;;;5071104;28;20185;-53
2023/11/11 14:15:38;;;;;;;6.47;3.17;;;;;;;;;;5070669;28;20184;-53
2023/11/11 14:18:04;;;;;;;4.07;3.27;;;;;;;;;;5069424;28;20195;-53
2023/11/11 14:20:30;;;;;;;5.60;3.90;;;;;;;;;;5071073;28;20639;-53
2023/11/11 14:22:56;;;;;;;5.00;3.57;;;;;;;;;;5075600;28;20523;-53
2023/11/11 14:25:23;;;;;;;3.53;2.97;;;;;;;;;;5070360;28;20169;-53
2023/11/11 14:27:49;;;;;;;8.10;2.80;;;;;;;;;;5071166;28;20636;-53
2023/11/11 14:30:16;;;;;;;4.80;2.87;;;;;;;;;;5069627;28;20168;-52
2023/11/11 14:32:43;;;;;;;3.27;2.37;;;;;;;;;;5066961;28;20251;-53
2023/11/11 14:35:20;;;;;;;4.40;2.73;;;;;;;;;;5070398;28;20627;-53